Time;durP1;ratioP1;P1;durP2;ratioP2;P2;SDS_P1;SDS_P2;PMS_P1;PMS_P2;Temp;Humidity;BMP_temperature;BMP_pressure;BME280_temperature;BME280_humidity;BME280_pressure;Samples;Min_cycle;Max_cycle;Signal;HPM_P1;HPM_P2
2021/01/27 00:02:18;;;;;;;1.50;1.40;;;17.10;78.80;;;;;;5085158;28;20024;-44
2021/01/27 00:04:44;;;;;;;1.40;1.30;;;17.00;78.70;;;;;;5085053;28;20682;-45
2021/01/27 00:07:11;;;;;;;1.52;1.42;;;17.10;78.70;;;;;;5084596;28;20016;-43
2021/01/27 00:09:37;;;;;;;;;;;17.10;78.70;;;;;;5085518;28;20179;-45
2021/01/27 00:12:04;;;;;;;1.38;1.27;;;17.00;78.70;;;;;;5088528;28;20630;-44
2021/01/27 00:14:30;;;;;;;1.70;1.60;;;17.00;78.60;;;;;;5084959;28;20084;-43
2021/01/27 00:16:56;;;;;;;1.40;1.30;;;17.00;78.60;;;;;;5084513;28;20025;-43
2021/01/27 00:19:22;;;;;;;1.80;1.63;;;17.00;78.60;;;;;;5084482;28;20058;-43
2021/01/27 00:21:48;;;;;;;1.40;1.30;;;17.00;78.60;;;;;;5088184;28;20031;-45
2021/01/27 00:24:16;;;;;;;1.83;1.65;;;17.00;78.60;;;;;;5105000;28;20566;-43
2021/01/27 00:26:42;;;;;;;;;;;17.00;78.50;;;;;;5105324;28;20123;-45
2021/01/27 00:29:09;;;;;;;1.67;1.58;;;17.00;78.50;;;;;;5104997;28;20026;-43
2021/01/27 00:31:35;;;;;;;1.35;1.25;;;17.00;78.40;;;;;;5104685;28;20031;-44
2021/01/27 00:34:12;;;;;;;1.38;1.27;;;17.00;78.30;;;;;;5104543;28;20051;-43
2021/01/27 00:36:38;;;;;;;1.58;1.48;;;17.00;78.20;;;;;;5104601;28;20100;-45
2021/01/27 00:39:05;;;;;;;1.75;1.63;;;16.90;78.10;;;;;;5104034;28;20055;-44
2021/01/27 00:41:31;;;;;;;1.35;1.20;;;16.90;78.10;;;;;;5103849;28;20604;-43
2021/01/27 00:43:57;;;;;;;1.65;1.55;;;16.90;78.00;;;;;;5104706;28;20028;-43
2021/01/27 00:46:23;;;;;;;1.75;1.50;;;16.90;78.00;;;;;;5104389;28;20111;-47
2021/01/27 00:48:49;;;;;;;1.75;1.40;;;16.90;78.00;;;;;;5104244;28;20031;-45
2021/01/27 00:51:16;;;;;;;1.50;1.20;;;16.90;78.00;;;;;;5099120;28;20025;-43
2021/01/27 00:53:42;;;;;;;2.33;1.60;;;16.90;78.00;;;;;;5084430;28;20025;-44
2021/01/27 00:56:08;;;;;;;1.87;1.40;;;16.90;77.90;;;;;;5083782;28;20040;-43
2021/01/27 00:58:34;;;;;;;2.25;1.80;;;16.90;77.90;;;;;;5083736;28;20155;-44
2021/01/27 01:01:00;;;;;;;1.45;1.35;;;16.90;77.80;;;;;;5083806;28;20036;-43
2021/01/27 01:03:29;;;;;;;1.60;1.50;;;16.80;77.60;;;;;;5083735;28;20100;-44
2021/01/27 01:05:55;;;;;;;1.48;1.38;;;16.80;77.60;;;;;;5084106;28;20388;-44
2021/01/27 01:08:22;;;;;;;1.58;1.38;;;16.80;77.50;;;;;;5083611;28;20024;-44
2021/01/27 01:10:50;;;;;;;1.50;1.40;;;16.80;77.50;;;;;;5084345;28;20024;-44
2021/01/27 01:13:23;;;;;;;1.45;1.30;;;16.80;77.40;;;;;;5083744;28;20096;-44
2021/01/27 01:15:50;;;;;;;1.80;1.38;;;16.80;77.30;;;;;;5083644;28;20032;-47
2021/01/27 01:18:16;;;;;;;1.48;1.38;;;16.80;77.30;;;;;;5083281;28;20051;-44
2021/01/27 01:20:42;;;;;;;1.85;1.50;;;16.80;77.30;;;;;;5083521;28;20080;-47
2021/01/27 01:23:09;;;;;;;1.80;1.45;;;16.80;77.30;;;;;;5083790;28;20032;-43
2021/01/27 01:25:35;;;;;;;1.50;1.40;;;16.70;77.20;;;;;;5083788;28;20032;-46
2021/01/27 01:28:03;;;;;;;1.60;1.47;;;16.70;77.10;;;;;;5083510;28;20025;-43
2021/01/27 01:30:37;;;;;;;1.48;1.38;;;16.70;77.30;;;;;;5083527;28;20261;-43
2021/01/27 01:33:14;;;;;;;1.50;1.40;;;16.70;77.20;;;;;;5076008;28;20843;-43
2021/01/27 01:35:41;;;;;;;4.20;1.50;;;16.70;77.20;;;;;;5074456;28;20030;-40
2021/01/27 01:38:07;;;;;;;1.90;1.42;;;16.70;77.10;;;;;;5082996;28;20032;-44
2021/01/27 01:40:36;;;;;;;1.53;1.40;;;16.70;77.20;;;;;;5083668;28;20040;-45
2021/01/27 01:43:14;;;;;;;1.48;1.33;;;16.70;77.10;;;;;;5083470;28;20035;-44
2021/01/27 01:45:43;;;;;;;1.80;1.40;;;16.60;77.00;;;;;;5083001;28;20020;-43
2021/01/27 01:48:21;;;;;;;1.50;1.40;;;16.60;77.00;;;;;;5083090;28;20111;-44
2021/01/27 01:50:55;;;;;;;1.30;1.20;;;16.60;77.00;;;;;;5065704;28;20021;-44
2021/01/27 01:53:21;;;;;;;2.58;1.30;;;16.60;77.00;;;;;;5075719;28;20078;-43
2021/01/27 01:55:48;;;;;;;1.60;1.45;;;16.60;77.00;;;;;;5069863;28;20124;-44
2021/01/27 01:58:14;;;;;;;1.92;0.95;;;16.60;77.00;;;;;;5078741;28;20044;-42
2021/01/27 02:00:40;;;;;;;1.50;1.40;;;16.50;76.90;;;;;;5081463;28;20036;-43
2021/01/27 02:03:11;;;;;;;2.00;1.20;;;16.50;77.00;;;;;;5072091;28;20112;-43
2021/01/27 02:05:37;;;;;;;1.92;1.40;;;16.50;76.90;;;;;;5080908;28;20083;-41
2021/01/27 02:08:04;;;;;;;1.77;1.60;;;16.50;76.90;;;;;;5101801;28;20048;-44
2021/01/27 02:10:30;;;;;;;1.40;1.30;;;16.50;77.10;;;;;;5098053;28;20564;-44
2021/01/27 02:13:14;;;;;;;1.70;1.60;;;16.50;76.80;;;;;;5069258;28;20025;-47
2021/01/27 02:15:46;;;;;;;1.85;1.52;;;16.50;77.50;;;;;;5061736;28;20377;-44
2021/01/27 02:18:49;;;;;;;1.10;1.00;;;16.50;76.80;;;;;;5062711;28;20098;-44
2021/01/27 02:21:22;;;;;;;1.38;1.27;;;16.50;76.70;;;;;;5066922;28;20029;-43
2021/01/27 02:24:03;;;;;;;1.80;1.50;;;16.40;76.70;;;;;;5082249;28;20029;-46
2021/01/27 02:26:41;;;;;;;1.65;1.25;;;16.40;76.70;;;;;;5084998;28;20024;-47
2021/01/27 02:29:30;;;;;;;2.15;1.10;;;16.40;76.70;;;;;;5081765;28;20044;-43
2021/01/27 02:32:00;;;;;;;1.30;1.20;;;16.40;76.60;;;;;;5081271;28;20036;-45
2021/01/27 02:34:57;;;;;;;1.23;1.13;;;16.40;76.60;;;;;;5082288;28;20112;-46
2021/01/27 02:37:47;;;;;;;1.75;1.23;;;16.40;76.50;;;;;;5071051;28;20020;-43
2021/01/27 02:40:28;;;;;;;2.35;1.42;;;16.40;76.60;;;;;;5065838;28;20153;-45
2021/01/27 02:43:14;;;;;;;1.40;1.30;;;16.30;76.50;;;;;;5073991;28;20028;-44
2021/01/27 02:45:45;;;;;;;2.58;1.52;;;16.30;76.50;;;;;;5061441;28;20089;-43
2021/01/27 02:48:19;;;;;;;2.55;1.45;;;16.30;76.60;;;;;;5061175;28;20040;-44
2021/01/27 02:51:10;;;;;;;1.58;0.98;;;16.30;76.50;;;;;;5060913;28;20029;-44
2021/01/27 02:53:41;;;;;;;1.50;1.23;;;16.30;76.50;;;;;;5061039;28;20040;-44
2021/01/27 02:56:32;;;;;;;2.85;1.50;;;16.30;76.60;;;;;;5083314;28;20032;-43
2021/01/27 02:59:02;;;;;;;2.53;1.50;;;16.20;76.50;;;;;;5066039;28;20041;-44
2021/01/27 03:01:45;;;;;;;1.75;1.50;;;16.20;76.50;;;;;;5075523;28;20036;-43
2021/01/27 03:04:26;;;;;;;1.42;1.33;;;16.20;76.50;;;;;;5102793;28;20032;-46
2021/01/27 03:06:52;;;;;;;2.88;1.10;;;16.20;76.50;;;;;;5084820;28;20027;-43
2021/01/27 03:09:48;;;;;;;1.95;1.38;;;16.20;76.50;;;;;;5084044;28;20035;-45
2021/01/27 03:12:14;;;;;;;1.90;1.48;;;16.20;76.60;;;;;;5078279;28;20106;-46
2021/01/27 03:14:41;;;;;;;1.88;1.40;;;16.20;76.60;;;;;;5084024;28;20062;-43
2021/01/27 03:17:11;;;;;;;2.03;1.45;;;16.10;76.60;;;;;;5086088;28;20044;-44
2021/01/27 03:20:04;;;;;;;2.05;1.48;;;16.10;76.60;;;;;;5084157;28;20043;-44
2021/01/27 03:22:54;;;;;;;1.75;1.60;;;16.10;76.60;;;;;;5084424;28;20039;-44
2021/01/27 03:25:26;;;;;;;1.58;1.35;;;16.10;76.60;;;;;;5084327;28;20024;-43
2021/01/27 03:28:06;;;;;;;2.03;1.30;;;16.10;76.70;;;;;;5101271;28;20085;-43
2021/01/27 03:30:35;;;;;;;1.98;1.50;;;16.10;76.60;;;;;;5085548;28;20016;-44
2021/01/27 03:33:06;;;;;;;2.67;1.75;;;16.10;76.70;;;;;;5093006;28;20025;-42
2021/01/27 03:35:38;;;;;;;2.13;1.50;;;16.10;76.60;;;;;;5100685;28;20024;-44
2021/01/27 03:38:21;;;;;;;3.08;1.58;;;16.10;76.60;;;;;;5092537;28;20032;-44
2021/01/27 03:40:47;;;;;;;1.98;1.60;;;16.00;76.50;;;;;;5088986;28;20068;-43
2021/01/27 03:43:29;;;;;;;2.70;1.40;;;16.00;76.70;;;;;;5104521;28;20035;-43
2021/01/27 03:46:15;;;;;;;3.42;1.63;;;16.00;76.60;;;;;;5105428;28;20034;-43
2021/01/27 03:48:51;;;;;;;3.80;1.30;;;16.00;77.40;;;;;;5104142;28;20024;-44
2021/01/27 03:51:17;;;;;;;1.40;1.30;;;16.00;76.60;;;;;;5092842;28;20035;-42
2021/01/27 03:53:43;;;;;;;2.15;1.40;;;16.00;76.60;;;;;;5098420;28;20048;-42
2021/01/27 03:56:10;;;;;;;2.80;1.40;;;16.00;76.70;;;;;;5083706;28;20446;-43
2021/01/27 03:58:37;;;;;;;1.40;1.30;;;16.00;76.60;;;;;;5072386;28;20135;-41
2021/01/27 04:01:04;;;;;;;1.33;1.23;;;15.90;76.60;;;;;;5063173;28;20036;-43
2021/01/27 04:03:30;;;;;;;1.52;1.42;;;15.90;76.60;;;;;;5079790;28;20092;-43
2021/01/27 04:05:57;;;;;;;1.67;1.58;;;15.90;76.70;;;;;;5082976;28;20036;-45
2021/01/27 04:08:23;;;;;;;3.17;1.60;;;15.90;76.60;;;;;;5085111;28;20101;-43
2021/01/27 04:10:50;;;;;;;1.92;1.42;;;15.90;76.60;;;;;;5091532;28;20024;-44
2021/01/27 04:13:16;;;;;;;1.88;1.55;;;15.90;76.60;;;;;;5085761;28;20032;-44
2021/01/27 04:15:42;;;;;;;2.10;1.55;;;15.90;76.70;;;;;;5084838;28;20025;-41
2021/01/27 04:18:09;;;;;;;1.65;1.50;;;15.90;76.60;;;;;;5084615;28;20055;-40
2021/01/27 04:20:35;;;;;;;2.30;1.50;;;15.90;76.70;;;;;;5084021;28;20040;-42
2021/01/27 04:23:01;;;;;;;2.90;1.60;;;15.90;76.70;;;;;;5084542;28;20032;-43
2021/01/27 04:25:27;;;;;;;2.13;1.55;;;15.80;76.60;;;;;;5084432;28;20181;-43
2021/01/27 04:27:53;;;;;;;3.53;1.35;;;15.80;76.50;;;;;;5100721;28;20532;-43
2021/01/27 04:30:24;;;;;;;2.95;1.60;;;15.80;77.40;;;;;;5104493;28;20039;-43
2021/01/27 04:32:51;;;;;;;1.40;1.25;;;15.80;76.60;;;;;;5086923;28;20024;-43
2021/01/27 04:35:17;;;;;;;2.13;1.60;;;15.80;76.60;;;;;;5093770;28;20032;-43
2021/01/27 04:37:43;;;;;;;4.25;1.65;;;15.80;76.70;;;;;;5092419;28;20109;-42
2021/01/27 04:40:38;;;;;;;2.55;1.50;;;15.80;76.70;;;;;;5088852;28;20689;-43
2021/01/27 04:43:19;;;;;;;3.22;1.42;;;15.80;76.70;;;;;;5087218;28;20061;-41
2021/01/27 04:45:46;;;;;;;1.40;1.30;;;15.80;76.60;;;;;;5093743;28;20028;-42
2021/01/27 04:48:16;;;;;;;1.40;1.30;;;15.80;76.70;;;;;;5090002;28;20058;-43
2021/01/27 04:51:02;;;;;;;3.28;1.42;;;15.80;76.70;;;;;;5083609;28;20020;-43
2021/01/27 04:53:40;;;;;;;2.10;1.60;;;15.80;76.80;;;;;;5068369;28;20031;-42
2021/01/27 04:56:25;;;;;;;1.88;1.65;;;15.80;76.70;;;;;;5092153;28;20050;-42
2021/01/27 04:59:14;;;;;;;1.48;1.38;;;15.80;76.70;;;;;;5091220;28;20116;-42
2021/01/27 05:02:17;;;;;;;1.35;1.17;;;15.80;76.80;;;;;;5085589;28;20068;-43
2021/01/27 05:05:07;;;;;;;1.40;1.30;;;15.80;76.70;;;;;;5087117;28;20020;-43
2021/01/27 05:07:43;;;;;;;1.85;1.42;;;15.70;76.70;;;;;;5090552;28;20036;-42
2021/01/27 05:10:13;;;;;;;2.15;1.50;;;15.70;76.70;;;;;;5092255;28;20039;-42
2021/01/27 05:12:49;;;;;;;1.50;1.40;;;15.70;76.70;;;;;;5089253;28;20032;-43
2021/01/27 05:15:15;;;;;;;3.33;1.30;;;15.70;76.80;;;;;;5087496;28;20055;-44
2021/01/27 05:17:42;;;;;;;3.22;1.38;;;15.70;76.70;;;;;;5096944;28;20042;-43
2021/01/27 05:20:12;;;;;;;1.48;1.27;;;15.70;76.70;;;;;;5070975;28;20103;-43
2021/01/27 05:22:39;;;;;;;1.70;1.60;;;15.70;76.70;;;;;;5082110;28;20123;-43
2021/01/27 05:25:15;;;;;;;2.22;1.80;;;15.70;76.80;;;;;;5087916;28;20025;-43
2021/01/27 05:27:41;;;;;;;1.42;1.33;;;15.70;76.80;;;;;;5074020;28;20033;-42
2021/01/27 05:30:09;;;;;;;1.80;1.38;;;15.70;76.80;;;;;;5093743;28;20024;-42
2021/01/27 05:32:55;;;;;;;1.67;1.48;;;15.70;76.70;;;;;;5094408;28;20028;-40
2021/01/27 05:35:27;;;;;;;2.53;1.38;;;15.70;76.80;;;;;;5088404;28;20028;-45
2021/01/27 05:37:53;;;;;;;2.17;1.38;;;15.70;76.80;;;;;;5089026;28;20032;-42
2021/01/27 05:40:35;;;;;;;1.58;1.30;;;15.70;76.70;;;;;;5088803;28;20066;-43
2021/01/27 05:43:15;;;;;;;1.42;1.33;;;15.60;76.80;;;;;;5091188;28;20088;-42
2021/01/27 05:45:48;;;;;;;1.60;1.20;;;15.60;76.70;;;;;;5096308;28;20655;-43
2021/01/27 05:48:40;;;;;;;1.45;1.25;;;15.60;76.70;;;;;;5103341;28;20032;-41
2021/01/27 05:51:06;;;;;;;1.63;1.30;;;15.60;76.70;;;;;;5097176;28;20468;-46
2021/01/27 05:53:32;;;;;;;1.80;1.15;;;15.60;76.70;;;;;;5082309;28;20020;-44
2021/01/27 05:56:33;;;;;;;3.28;1.50;;;15.60;76.70;;;;;;5083269;28;20107;-45
2021/01/27 05:59:06;;;;;;;1.73;1.20;;;15.60;76.70;;;;;;5079901;28;20041;-42
2021/01/27 06:01:41;;;;;;;2.03;1.20;;;15.60;76.70;;;;;;5083157;28;20636;-44
2021/01/27 06:04:11;;;;;;;1.42;1.20;;;15.60;76.70;;;;;;5076208;28;20025;-42
2021/01/27 06:06:46;;;;;;;2.75;1.23;;;15.60;76.70;;;;;;5062929;28;20489;-43
2021/01/27 06:09:12;;;;;;;1.75;1.40;;;15.60;76.70;;;;;;5062943;28;20118;-43
2021/01/27 06:11:39;;;;;;;2.22;1.20;;;15.60;76.70;;;;;;5105603;28;20066;-43
2021/01/27 06:14:10;;;;;;;1.60;1.20;;;15.60;76.80;;;;;;5090727;28;20035;-45
2021/01/27 06:16:44;;;;;;;1.33;1.17;;;15.60;76.80;;;;;;5087068;28;20140;-45
2021/01/27 06:19:16;;;;;;;1.70;1.25;;;15.60;76.80;;;;;;5078357;28;20047;-42
2021/01/27 06:22:01;;;;;;;1.80;1.40;;;15.60;76.90;;;;;;5082659;28;20035;-43
2021/01/27 06:24:59;;;;;;;1.50;1.38;;;15.60;76.80;;;;;;5082513;28;20021;-42
2021/01/27 06:27:44;;;;;;;2.22;1.30;;;15.60;76.90;;;;;;5039815;28;20057;-43
2021/01/27 06:30:16;;;;;;;1.92;1.52;;;15.50;76.80;;;;;;5027463;28;20068;-43
2021/01/27 06:32:54;;;;;;;1.60;1.42;;;15.60;76.80;;;;;;5021895;28;20072;-42
2021/01/27 06:35:52;;;;;;;3.78;1.63;;;15.60;76.80;;;;;;5041321;28;20049;-43
2021/01/27 06:38:31;;;;;;;1.27;1.10;;;15.50;76.80;;;;;;5030053;28;20064;-44
2021/01/27 06:41:24;;;;;;;1.48;1.20;;;15.60;76.90;;;;;;5027587;28;20057;-43
2021/01/27 06:44:18;;;;;;;2.58;1.23;;;15.60;76.90;;;;;;5043483;28;20084;-43
2021/01/27 06:47:05;;;;;;;4.70;1.77;;;15.60;76.90;;;;;;5043659;28;20120;-43
2021/01/27 06:49:59;;;;;;;1.48;1.10;;;15.50;76.90;;;;;;5043437;28;20026;-43
2021/01/27 06:52:40;;;;;;;1.80;1.50;;;15.50;76.90;;;;;;5029446;28;20026;-43
2021/01/27 06:55:32;;;;;;;1.38;1.27;;;15.50;76.90;;;;;;5043888;28;20021;-43
2021/01/27 06:58:15;;;;;;;1.50;1.40;;;15.50;76.90;;;;;;5026394;28;20041;-42
2021/01/27 07:01:02;;;;;;;1.80;1.50;;;15.60;77.00;;;;;;5038299;28;20065;-45
2021/01/27 07:03:37;;;;;;;1.90;1.30;;;15.50;77.00;;;;;;5045839;28;20044;-45
2021/01/27 07:06:29;;;;;;;1.95;1.30;;;15.50;76.90;;;;;;5065652;28;20120;-45
2021/01/27 07:09:18;;;;;;;2.78;1.30;;;15.50;77.00;;;;;;5066003;28;20025;-46
2021/01/27 07:12:09;;;;;;;1.38;1.20;;;15.50;77.00;;;;;;5077267;28;20109;-46
2021/01/27 07:14:51;;;;;;;2.28;1.30;;;15.50;77.00;;;;;;5093811;28;20092;-46
2021/01/27 07:17:44;;;;;;;1.27;1.17;;;15.50;76.90;;;;;;5087911;28;20042;-45
2021/01/27 07:20:17;;;;;;;2.10;1.52;;;15.50;76.90;;;;;;5091116;28;20043;-45
2021/01/27 07:22:48;;;;;;;1.38;1.13;;;15.50;77.00;;;;;;5089400;28;20024;-46
2021/01/27 07:25:44;;;;;;;2.03;1.42;;;15.50;76.90;;;;;;5088732;28;20047;-47
2021/01/27 07:28:29;;;;;;;1.83;1.27;;;15.50;77.00;;;;;;5095683;28;21215;-45
2021/01/27 07:31:06;;;;;;;2.72;1.50;;;15.50;77.00;;;;;;5085132;28;20123;-47
2021/01/27 07:33:59;;;;;;;3.35;1.50;;;15.50;77.00;;;;;;5092778;28;20023;-46
2021/01/27 07:36:35;;;;;;;2.75;1.20;;;15.50;77.00;;;;;;5090217;28;20025;-46
2021/01/27 07:39:16;;;;;;;2.78;1.30;;;15.50;77.00;;;;;;5090000;28;20490;-46
2021/01/27 07:42:12;;;;;;;1.40;1.30;;;15.50;77.00;;;;;;5083023;28;20041;-48
2021/01/27 07:44:38;;;;;;;2.05;1.60;;;15.50;77.00;;;;;;5082461;28;20108;-45
2021/01/27 07:47:56;;;;;;;3.00;1.55;;;15.50;77.00;;;;;;5072444;28;20046;-45
2021/01/27 07:50:23;;;;;;;1.50;1.10;;;15.50;76.90;;;;;;5055051;28;20052;-46
2021/01/27 07:52:52;;;;;;;1.45;1.33;;;15.50;77.00;;;;;;5089482;28;20074;-45
2021/01/27 07:55:43;;;;;;;1.40;1.30;;;15.50;77.00;;;;;;5095739;28;20081;-47
2021/01/27 07:58:20;;;;;;;1.90;1.25;;;15.50;77.00;;;;;;5088736;28;20032;-45
2021/01/27 08:01:04;;;;;;;1.75;1.40;;;15.50;77.00;;;;;;5083970;28;20028;-44
2021/01/27 08:04:01;;;;;;;1.92;1.30;;;15.50;77.10;;;;;;5083394;28;20108;-45
2021/01/27 08:06:27;;;;;;;2.35;1.50;;;15.50;77.10;;;;;;5082850;28;20447;-45
2021/01/27 08:08:59;;;;;;;1.77;1.50;;;15.50;77.10;;;;;;5085966;28;20031;-45
2021/01/27 08:11:37;;;;;;;3.88;1.50;;;15.50;77.00;;;;;;5076788;28;20269;-47
2021/01/27 08:14:04;;;;;;;1.63;1.48;;;15.50;77.10;;;;;;5103360;28;20073;-45
2021/01/27 08:16:32;;;;;;;1.67;1.48;;;15.50;77.10;;;;;;5104676;28;20085;-47
2021/01/27 08:19:13;;;;;;;2.97;1.52;;;15.50;77.10;;;;;;5104882;28;20023;-46
2021/01/27 08:21:52;;;;;;;1.77;1.30;;;15.50;77.10;;;;;;5104726;28;20040;-46
2021/01/27 08:24:36;;;;;;;1.77;1.40;;;15.50;77.10;;;;;;5103355;28;20042;-46
2021/01/27 08:27:15;;;;;;;1.35;1.25;;;15.50;77.10;;;;;;5064370;28;20092;-46
2021/01/27 08:29:56;;;;;;;1.92;1.30;;;15.50;77.10;;;;;;5064516;28;20021;-46
2021/01/27 08:32:30;;;;;;;2.95;1.55;;;15.50;77.20;;;;;;5082711;28;20037;-47
2021/01/27 08:34:58;;;;;;;1.80;1.25;;;15.50;77.20;;;;;;5080692;28;20021;-48
2021/01/27 08:37:30;;;;;;;1.90;1.40;;;15.60;78.10;;;;;;5065151;28;20045;-49
2021/01/27 08:40:19;;;;;;;1.83;1.35;;;15.90;81.40;;;;;;5062446;28;20037;-49
2021/01/27 08:42:55;;;;;;;2.58;1.65;;;16.10;81.60;;;;;;5081146;28;20056;-49
2021/01/27 08:45:24;;;;;;;2.80;1.33;;;16.30;81.50;;;;;;5082857;28;20031;-48
2021/01/27 08:47:55;;;;;;;2.97;1.35;;;16.40;81.20;;;;;;5084381;28;20029;-50
2021/01/27 08:50:49;;;;;;;3.30;1.50;;;16.60;81.00;;;;;;5082345;28;20032;-49
2021/01/27 08:53:20;;;;;;;1.48;1.23;;;16.80;80.60;;;;;;5084190;28;20033;-46
2021/01/27 08:55:46;;;;;;;3.33;1.75;;;16.90;80.30;;;;;;5082556;28;20099;-49
2021/01/27 08:58:38;;;;;;;2.13;1.30;;;17.00;79.90;;;;;;5074308;28;20088;-47
2021/01/27 09:01:08;;;;;;;1.98;1.70;;;17.20;79.60;;;;;;5069961;28;20112;-48
2021/01/27 09:03:42;;;;;;;1.95;1.20;;;17.30;79.30;;;;;;5083388;28;20454;-50
2021/01/27 09:06:27;;;;;;;3.60;1.58;;;17.40;79.70;;;;;;5083331;28;20024;-50
2021/01/27 09:09:12;;;;;;;2.20;1.30;;;17.50;78.60;;;;;;5083903;28;20031;-47
2021/01/27 09:11:39;;;;;;;1.83;1.27;;;17.60;78.30;;;;;;5082864;28;20653;-49
2021/01/27 09:14:09;;;;;;;2.13;1.13;;;17.70;77.90;;;;;;5082306;28;20024;-50
2021/01/27 09:16:35;;;;;;;1.67;1.40;;;17.80;77.70;;;;;;5082385;28;20141;-49
2021/01/27 09:19:16;;;;;;;1.45;1.15;;;17.90;77.50;;;;;;5080478;28;20028;-51
2021/01/27 09:21:46;;;;;;;3.35;1.33;;;17.90;77.10;;;;;;5078000;28;20111;-50
2021/01/27 09:24:23;;;;;;;2.10;1.40;;;18.00;76.90;;;;;;5070795;28;20042;-49
2021/01/27 09:26:50;;;;;;;2.47;1.27;;;18.10;76.60;;;;;;5097230;28;20025;-50
2021/01/27 09:29:19;;;;;;;;;;;18.20;76.40;;;;;;5075016;28;20052;-48
2021/01/27 09:31:45;;;;;;;2.25;1.00;;;18.20;76.10;;;;;;5075699;28;20270;-50
2021/01/27 09:34:27;;;;;;;1.48;1.05;;;18.30;76.10;;;;;;5074155;28;20036;-47
2021/01/27 09:37:14;;;;;;;1.60;1.10;;;18.30;75.70;;;;;;5077796;28;20052;-48
2021/01/27 09:39:44;;;;;;;1.35;1.02;;;18.40;75.50;;;;;;5080276;28;20032;-51
2021/01/27 09:42:18;;;;;;;1.67;1.00;;;18.50;75.30;;;;;;5072905;28;20065;-50
2021/01/27 09:44:45;;;;;;;1.90;1.27;;;18.60;75.10;;;;;;5083341;28;20398;-50
2021/01/27 09:47:12;;;;;;;2.08;1.20;;;18.60;74.90;;;;;;5083240;28;20021;-52
2021/01/27 09:49:43;;;;;;;1.42;1.10;;;18.60;74.70;;;;;;5098716;28;20032;-52
2021/01/27 09:52:10;;;;;;;2.20;0.93;;;18.70;74.60;;;;;;5081111;28;20039;-50
2021/01/27 09:54:39;;;;;;;1.52;0.95;;;18.70;74.50;;;;;;5079877;28;20040;-48
2021/01/27 09:57:05;;;;;;;1.50;1.00;;;18.80;74.20;;;;;;5062072;28;20057;-49
2021/01/27 09:59:31;;;;;;;1.10;1.00;;;18.80;74.10;;;;;;5073537;28;20044;-50
2021/01/27 10:02:00;;;;;;;1.63;1.00;;;18.90;73.90;;;;;;5081362;28;20054;-49
2021/01/27 10:04:45;;;;;;;1.35;0.90;;;18.90;73.80;;;;;;5082767;28;20525;-50
2021/01/27 10:07:12;;;;;;;1.63;1.00;;;19.00;73.70;;;;;;5082989;28;20024;-48
2021/01/27 10:09:42;;;;;;;2.05;1.00;;;19.00;73.40;;;;;;5082921;28;20020;-48
2021/01/27 10:12:12;;;;;;;1.77;1.13;;;19.10;73.30;;;;;;5086471;28;20115;-53
2021/01/27 10:14:40;;;;;;;1.52;0.98;;;19.10;73.10;;;;;;5106102;28;20028;-51
2021/01/27 10:17:06;;;;;;;;;;;19.10;73.00;;;;;;5106415;28;20763;-51
2021/01/27 10:19:35;;;;;;;1.23;1.00;;;19.20;73.00;;;;;;5107286;28;19911;-49
2021/01/27 10:22:03;;;;;;;1.00;0.90;;;19.20;72.80;;;;;;5105436;28;20066;-50
2021/01/27 10:24:51;;;;;;;1.85;1.17;;;19.20;72.60;;;;;;5105720;28;20039;-50
2021/01/27 10:27:37;;;;;;;1.10;0.70;;;19.30;72.50;;;;;;5098131;28;20092;-50
2021/01/27 10:30:30;;;;;;;1.45;1.02;;;19.30;72.40;;;;;;5086593;28;20024;-50
2021/01/27 10:32:56;;;;;;;1.20;0.75;;;19.40;72.20;;;;;;5086481;28;20035;-49
2021/01/27 10:35:23;;;;;;;1.67;1.00;;;19.40;72.00;;;;;;5086353;28;20796;-51
2021/01/27 10:38:14;;;;;;;1.60;0.88;;;19.40;71.90;;;;;;5086582;28;20036;-49
2021/01/27 10:40:41;;;;;;;2.35;1.00;;;19.40;71.80;;;;;;5085923;28;20036;-52
2021/01/27 10:43:10;;;;;;;0.88;0.80;;;19.50;71.70;;;;;;5084716;28;20031;-52
2021/01/27 10:45:40;;;;;;;1.63;0.70;;;19.50;71.60;;;;;;5086360;28;20044;-50
2021/01/27 10:48:16;;;;;;;1.73;1.05;;;19.50;71.50;;;;;;5085094;28;20021;-50
2021/01/27 10:51:07;;;;;;;1.13;0.90;;;19.50;71.40;;;;;;5085841;28;20055;-49
2021/01/27 10:53:37;;;;;;;1.17;0.88;;;19.60;71.30;;;;;;5067796;28;20024;-50
2021/01/27 10:56:03;;;;;;;1.17;0.70;;;19.60;71.20;;;;;;5086314;28;20032;-49
2021/01/27 10:58:29;;;;;;;1.10;0.73;;;19.60;71.10;;;;;;5074358;28;20075;-49
2021/01/27 11:00:56;;;;;;;1.08;0.77;;;19.60;71.10;;;;;;5066090;28;20063;-48
2021/01/27 11:03:22;;;;;;;0.93;0.77;;;19.70;70.90;;;;;;5073306;28;20031;-49
2021/01/27 11:05:48;;;;;;;0.95;0.80;;;19.70;70.90;;;;;;5086025;28;20138;-50
2021/01/27 11:08:21;;;;;;;1.20;0.80;;;19.70;70.70;;;;;;5086059;28;20674;-51
2021/01/27 11:10:47;;;;;;;1.30;0.77;;;19.70;70.60;;;;;;5085437;28;20206;-49
2021/01/27 11:13:13;;;;;;;2.08;0.80;;;19.70;70.60;;;;;;5079294;28;20047;-49
2021/01/27 11:15:40;;;;;;;1.20;0.90;;;19.80;70.50;;;;;;5077113;28;20031;-49
2021/01/27 11:18:06;;;;;;;1.30;0.88;;;19.80;70.40;;;;;;5078110;28;20024;-54
2021/01/27 11:20:32;;;;;;;1.23;0.80;;;19.80;70.30;;;;;;5076162;28;20036;-52
2021/01/27 11:22:58;;;;;;;1.08;0.70;;;19.80;70.10;;;;;;5087610;28;20560;-54
2021/01/27 11:25:26;;;;;;;1.95;0.80;;;19.90;70.10;;;;;;5081844;28;20029;-55
2021/01/27 11:27:52;;;;;;;1.55;0.70;;;19.90;70.80;;;;;;5078594;28;20041;-55
2021/01/27 11:30:22;;;;;;;2.88;1.35;;;19.90;70.00;;;;;;5080806;28;20461;-55
2021/01/27 11:32:48;;;;;;;3.55;1.02;;;19.90;70.00;;;;;;5077881;28;20133;-51
2021/01/27 11:35:15;;;;;;;1.13;0.70;;;19.90;69.90;;;;;;5083882;28;20033;-55
2021/01/27 11:37:41;;;;;;;1.08;0.80;;;19.90;69.80;;;;;;5074098;28;21157;-56
2021/01/27 11:40:08;;;;;;;1.40;0.60;;;20.00;69.70;;;;;;5082720;28;20051;-54
2021/01/27 11:42:34;;;;;;;1.23;0.60;;;20.00;69.80;;;;;;5082392;28;20330;-54
2021/01/27 11:45:00;;;;;;;0.90;0.63;;;20.00;69.60;;;;;;5085467;28;20081;-55
2021/01/27 11:47:27;;;;;;;1.33;0.82;;;20.00;69.60;;;;;;5084245;28;20587;-53
2021/01/27 11:49:53;;;;;;;1.35;0.80;;;20.00;69.50;;;;;;5085193;28;20076;-54
2021/01/27 11:52:19;;;;;;;3.35;0.80;;;20.00;69.40;;;;;;5084869;28;20036;-55
2021/01/27 11:54:45;;;;;;;2.35;0.85;;;20.00;69.30;;;;;;5083897;28;20393;-55
2021/01/27 11:57:11;;;;;;;1.30;0.63;;;20.10;69.20;;;;;;5084156;28;20051;-55
2021/01/27 11:59:38;;;;;;;1.30;0.73;;;20.10;69.30;;;;;;5064798;28;20055;-54
2021/01/27 12:02:04;;;;;;;0.93;0.60;;;20.10;69.30;;;;;;5067654;28;20033;-54
2021/01/27 12:04:33;;;;;;;1.95;0.80;;;20.10;69.10;;;;;;5084700;28;20039;-55
2021/01/27 12:06:59;;;;;;;1.42;0.63;;;20.10;69.10;;;;;;5083447;28;20047;-55
2021/01/27 12:09:28;;;;;;;2.10;0.90;;;20.10;68.90;;;;;;5084541;28;20035;-55
2021/01/27 12:11:55;;;;;;;1.20;0.68;;;20.10;69.00;;;;;;5083921;28;20029;-55
2021/01/27 12:14:22;;;;;;;1.38;0.77;;;20.20;68.90;;;;;;5096047;28;20031;-53
2021/01/27 12:16:48;;;;;;;1.87;0.70;;;20.20;68.90;;;;;;5105114;28;20053;-54
2021/01/27 12:19:14;;;;;;;2.15;0.57;;;20.20;68.90;;;;;;5070722;28;20041;-56
2021/01/27 12:21:40;;;;;;;2.60;0.60;;;20.20;68.90;;;;;;5078827;28;20024;-56
2021/01/27 12:24:07;;;;;;;2.00;0.70;;;20.20;68.80;;;;;;5084366;28;20482;-55
2021/01/27 12:26:33;;;;;;;0.80;0.57;;;20.20;68.80;;;;;;5084698;28;20029;-52
2021/01/27 12:28:59;;;;;;;2.22;0.70;;;20.20;68.70;;;;;;5083995;28;20043;-55
2021/01/27 12:31:25;;;;;;;2.05;0.60;;;20.20;68.60;;;;;;5084305;28;20029;-54
2021/01/27 12:33:52;;;;;;;1.30;0.68;;;20.30;68.70;;;;;;5081821;28;20013;-55
2021/01/27 12:36:18;;;;;;;2.38;0.90;;;20.30;68.60;;;;;;5084149;28;20685;-55
2021/01/27 12:38:45;;;;;;;1.45;0.60;;;20.30;68.60;;;;;;5084573;28;20033;-55
2021/01/27 12:41:11;;;;;;;1.73;0.73;;;20.30;68.60;;;;;;5084626;28;20063;-56
2021/01/27 12:43:37;;;;;;;0.70;0.60;;;20.30;68.50;;;;;;5064364;28;20055;-53
2021/01/27 12:46:04;;;;;;;1.60;0.60;;;20.30;68.40;;;;;;5091063;28;20134;-56
2021/01/27 12:48:30;;;;;;;0.53;0.47;;;20.30;68.30;;;;;;5104309;28;20024;-55
2021/01/27 12:51:03;;;;;;;1.95;0.70;;;20.40;68.40;;;;;;5094975;28;20054;-55
2021/01/27 12:53:29;;;;;;;0.80;0.50;;;20.40;68.20;;;;;;5083851;28;20045;-56
2021/01/27 12:55:55;;;;;;;1.00;0.60;;;20.40;68.20;;;;;;5083954;28;20043;-57
2021/01/27 12:58:22;;;;;;;1.13;0.47;;;20.40;68.20;;;;;;5073227;28;20045;-54
2021/01/27 13:00:48;;;;;;;0.82;0.30;;;20.40;68.20;;;;;;5063871;28;20068;-55
2021/01/27 13:03:14;;;;;;;1.27;0.57;;;20.40;68.10;;;;;;5078404;28;20024;-52
2021/01/27 13:05:40;;;;;;;1.02;0.47;;;20.40;68.00;;;;;;5083658;28;20062;-54
2021/01/27 13:08:07;;;;;;;0.60;0.57;;;20.50;68.00;;;;;;5083730;28;20074;-54
2021/01/27 13:10:34;;;;;;;0.73;0.50;;;20.50;68.00;;;;;;5084181;28;20062;-53
2021/01/27 13:13:00;;;;;;;0.65;0.40;;;20.40;67.90;;;;;;5083228;28;20033;-55
2021/01/27 13:15:26;;;;;;;1.67;0.52;;;20.40;67.80;;;;;;5083799;28;20030;-55
2021/01/27 13:17:53;;;;;;;0.77;0.40;;;20.50;67.90;;;;;;5073077;28;20028;-55
2021/01/27 13:20:24;;;;;;;1.40;0.50;;;20.50;67.80;;;;;;5082052;28;20037;-55